createdAt,value
2022-09-07T00:01:21.969Z,8.76
2022-09-07T00:03:50.637Z,8.79
2022-09-07T00:06:19.318Z,8.82
2022-09-07T00:08:47.970Z,8.86
2022-09-07T00:11:19.165Z,8.86
2022-09-07T00:13:49.646Z,8.93
2022-09-07T00:16:20.125Z,8.98
2022-09-07T00:18:50.747Z,9.01
2022-09-07T00:21:19.752Z,9.06
2022-09-07T00:23:50.679Z,9.12
2022-09-07T00:26:20.257Z,9.16
2022-09-07T00:28:49.835Z,9.20
2022-09-07T00:31:21.456Z,9.24
2022-09-07T00:33:53.474Z,9.30
2022-09-07T00:36:24.016Z,9.32
2022-09-07T00:38:53.073Z,9.37
2022-09-07T00:41:23.511Z,9.39
2022-09-07T00:43:54.458Z,9.44
2022-09-07T00:46:24.938Z,9.44
2022-09-07T00:49:01.484Z,9.46
2022-09-07T00:51:34.757Z,9.48
2022-09-07T00:54:08.979Z,9.47
2022-09-07T00:56:41.555Z,9.50
2022-09-07T00:59:14.113Z,9.50
2022-09-07T01:01:43.076Z,9.51
2022-09-07T01:04:13.573Z,9.51
2022-09-07T01:06:43.663Z,9.53
2022-09-07T01:09:14.753Z,9.55
2022-09-07T01:11:50.885Z,9.57
2022-09-07T01:14:24.480Z,9.58
2022-09-07T01:17:04.928Z,9.59
2022-09-07T01:20:30.068Z,9.60
2022-09-07T01:23:48.612Z,9.64
2022-09-07T01:26:40.239Z,9.65
2022-09-07T01:29:19.514Z,9.66
2022-09-07T01:31:58.878Z,9.70
2022-09-07T01:34:28.181Z,9.72
2022-09-07T01:37:05.180Z,9.75
2022-09-07T01:39:41.194Z,9.76
2022-09-07T01:42:13.673Z,9.78
2022-09-07T01:44:50.017Z,9.83
2022-09-07T01:47:23.968Z,9.81
2022-09-07T01:49:55.941Z,9.80
2022-09-07T01:52:35.716Z,9.82
2022-09-07T01:55:13.960Z,9.84
2022-09-07T01:57:46.768Z,9.82
2022-09-07T02:00:20.096Z,9.83
2022-09-07T02:02:53.869Z,9.82
2022-09-07T02:05:28.578Z,9.84
2022-09-07T02:08:01.846Z,9.84
2022-09-07T02:10:36.397Z,9.84
2022-09-07T02:13:09.791Z,9.85
2022-09-07T02:15:46.768Z,9.82
2022-09-07T02:18:15.976Z,9.83
2022-09-07T02:20:50.117Z,9.85
2022-09-07T02:23:22.462Z,9.85
2022-09-07T02:25:55.455Z,9.86
2022-09-07T02:28:28.513Z,9.84
2022-09-07T02:30:58.711Z,9.84
2022-09-07T02:33:28.629Z,9.86
2022-09-07T02:35:57.520Z,9.90
2022-09-07T02:38:26.808Z,9.91
2022-09-07T02:40:57.558Z,9.95
2022-09-07T02:43:27.487Z,10.04
2022-09-07T02:46:17.990Z,9.98
2022-09-07T02:48:57.878Z,9.97
2022-09-07T02:51:35.860Z,10.02
2022-09-07T02:54:26.346Z,10.02
2022-09-07T02:57:06.264Z,10.02
2022-09-07T02:59:46.309Z,10.03
2022-09-07T03:02:23.473Z,10.04
2022-09-07T03:04:59.263Z,10.06
2022-09-07T03:07:35.977Z,10.09
2022-09-07T03:10:08.361Z,10.09
2022-09-07T03:12:42.398Z,10.07
2022-09-07T03:15:13.504Z,10.04
2022-09-07T03:17:43.822Z,10.01
2022-09-07T03:20:12.742Z,9.98
2022-09-07T03:22:41.764Z,9.97
2022-09-07T03:25:11.267Z,9.97
2022-09-07T03:27:40.122Z,9.96
2022-09-07T03:30:11.186Z,9.98
2022-09-07T03:32:40.867Z,9.99
2022-09-07T03:35:13.087Z,10.03
2022-09-07T03:37:43.357Z,10.02
2022-09-07T03:40:14.412Z,9.96
2022-09-07T03:42:43.284Z,10.02
2022-09-07T03:45:12.884Z,10.03
2022-09-07T03:47:41.870Z,10.04
2022-09-07T03:50:12.292Z,10.05
2022-09-07T03:52:41.280Z,10.06
2022-09-07T03:55:10.772Z,10.02
2022-09-07T03:57:40.620Z,9.99
2022-09-07T04:00:10.664Z,9.94
2022-09-07T04:02:42.320Z,9.94
2022-09-07T04:05:12.684Z,9.95
2022-09-07T04:07:41.474Z,9.96
2022-09-07T04:10:10.912Z,10.00
2022-09-07T04:12:40.108Z,10.08
2022-09-07T04:15:10.132Z,10.24
2022-09-07T04:17:39.917Z,10.27
2022-09-07T04:20:09.952Z,10.32
2022-09-07T04:22:40.247Z,10.41
2022-09-07T04:25:09.669Z,10.43
2022-09-07T04:27:38.429Z,10.58
2022-09-07T04:30:08.138Z,10.55
2022-09-07T04:32:36.951Z,10.63
2022-09-07T04:35:06.269Z,10.60
2022-09-07T04:37:34.959Z,10.58
2022-09-07T04:40:05.806Z,10.63
2022-09-07T04:42:34.663Z,10.59
2022-09-07T04:45:03.412Z,10.59
2022-09-07T04:47:32.486Z,10.67
2022-09-07T04:50:01.260Z,10.66
2022-09-07T04:52:30.098Z,10.65
2022-09-07T04:54:58.820Z,10.63
2022-09-07T04:57:29.120Z,10.62
2022-09-07T04:59:57.958Z,10.63
2022-09-07T05:02:26.711Z,10.60
2022-09-07T05:04:58.371Z,10.62
2022-09-07T05:07:30.886Z,10.54
2022-09-07T05:09:59.786Z,10.53
2022-09-07T05:12:30.083Z,10.51
2022-09-07T05:14:58.940Z,10.52
2022-09-07T05:17:27.783Z,10.54
2022-09-07T05:19:57.260Z,10.58
2022-09-07T05:22:26.411Z,10.51
2022-09-07T05:24:55.305Z,10.49
2022-09-07T05:27:24.017Z,10.45
2022-09-07T05:30:03.200Z,10.44
2022-09-07T05:32:35.318Z,10.45
2022-09-07T05:35:04.203Z,10.47
2022-09-07T05:37:33.080Z,10.50
2022-09-07T05:40:01.986Z,10.53
2022-09-07T05:42:31.346Z,10.55
2022-09-07T05:45:01.619Z,10.57
2022-09-07T05:47:30.372Z,10.62
2022-09-07T05:49:59.081Z,10.69
2022-09-07T05:52:27.869Z,10.64
2022-09-07T05:55:03.221Z,10.62
2022-09-07T05:57:45.671Z,10.59
2022-09-07T06:00:16.307Z,10.59
2022-09-07T06:02:45.180Z,10.58
2022-09-07T06:05:14.208Z,10.60
2022-09-07T06:07:43.169Z,10.62
2022-09-07T06:13:00.883Z,10.58
2022-09-07T06:15:31.062Z,10.66
2022-09-07T06:17:59.904Z,10.81
2022-09-07T06:20:28.726Z,10.83
2022-09-07T06:22:57.478Z,10.84
2022-09-07T06:25:26.311Z,10.87
2022-09-07T06:27:55.413Z,11.05
2022-09-07T06:30:25.497Z,11.10
2022-09-07T06:32:55.692Z,11.23
2022-09-07T06:35:24.350Z,11.27
2022-09-07T06:37:52.996Z,11.47
2022-09-07T06:40:23.031Z,11.55
2022-09-07T06:42:51.913Z,11.55
2022-09-07T06:45:20.715Z,11.61
2022-09-07T06:47:49.575Z,11.65
2022-09-07T06:50:19.786Z,11.79
2022-09-07T06:55:45.081Z,11.72
2022-09-07T06:58:13.774Z,11.74
2022-09-07T07:00:42.666Z,11.69
2022-09-07T07:03:11.616Z,11.76
2022-09-07T07:05:42.036Z,11.72
2022-09-07T07:08:10.848Z,11.63
2022-09-07T07:10:40.779Z,11.53
2022-09-07T07:13:09.776Z,11.66
2022-09-07T07:15:38.441Z,11.63
2022-09-07T07:18:20.358Z,11.57
2022-09-07T07:20:51.512Z,11.51
2022-09-07T07:23:20.459Z,11.46
2022-09-07T07:25:49.337Z,11.53
2022-09-07T07:31:11.315Z,11.55
2022-09-07T07:33:42.388Z,11.60
2022-09-07T07:36:15.084Z,11.57
2022-09-07T07:39:01.924Z,11.67
2022-09-07T07:44:23.926Z,11.89
2022-09-07T07:46:53.038Z,11.93
2022-09-07T07:49:22.095Z,12.10
2022-09-07T07:54:43.618Z,12.14
2022-09-07T07:57:12.802Z,12.22
2022-09-07T07:59:41.639Z,12.53
2022-09-07T08:02:16.556Z,12.77
2022-09-07T08:04:45.520Z,12.82
2022-09-07T08:07:16.021Z,12.87
2022-09-07T08:09:46.544Z,12.90
2022-09-07T08:12:18.098Z,12.99
2022-09-07T08:14:48.862Z,12.98
2022-09-07T08:17:18.622Z,13.05
2022-09-07T08:19:47.559Z,13.26
2022-09-07T08:22:17.779Z,13.02
2022-09-07T08:24:46.482Z,12.88
2022-09-07T08:27:15.778Z,12.85
2022-09-07T08:29:44.803Z,12.77
2022-09-07T08:32:13.361Z,12.65
2022-09-07T08:34:42.157Z,12.81
2022-09-07T08:37:10.779Z,12.86
2022-09-07T08:39:41.007Z,12.85
2022-09-07T08:42:27.659Z,12.89
2022-09-07T08:45:04.319Z,13.06
2022-09-07T08:47:39.537Z,12.85
2022-09-07T08:50:13.601Z,12.81
2022-09-07T08:52:48.885Z,12.89
2022-09-07T08:55:22.957Z,13.01
2022-09-07T08:57:57.098Z,13.04
2022-09-07T09:00:25.800Z,13.00
2022-09-07T09:05:51.388Z,13.10
2022-09-07T09:08:38.461Z,13.12
2022-09-07T09:11:13.048Z,13.01
2022-09-07T09:13:53.546Z,12.88
2022-09-07T09:16:35.203Z,12.90
2022-09-07T09:19:16.081Z,12.95
2022-09-07T09:21:45.183Z,13.18
2022-09-07T09:24:18.250Z,13.24
2022-09-07T09:26:54.309Z,13.24
2022-09-07T09:29:24.400Z,13.43
2022-09-07T09:31:53.741Z,13.20
2022-09-07T09:34:25.314Z,13.43
2022-09-07T09:36:57.801Z,13.53
2022-09-07T09:39:32.733Z,13.53
2022-09-07T09:42:17.250Z,13.60
2022-09-07T09:44:47.261Z,13.88
2022-09-07T09:47:30.266Z,14.05
2022-09-07T09:50:02.623Z,13.96
2022-09-07T09:52:45.132Z,13.80
2022-09-07T09:55:41.154Z,13.77
2022-09-07T10:01:27.726Z,13.47
2022-09-07T10:03:58.498Z,13.47
2022-09-07T10:06:29.868Z,13.57
2022-09-07T10:08:59.948Z,13.59
2022-09-07T10:14:37.457Z,13.38
2022-09-07T10:17:15.199Z,13.27
2022-09-07T10:19:45.337Z,13.48
2022-09-07T10:22:34.358Z,13.34
2022-09-07T10:25:04.283Z,13.20
2022-09-07T10:27:35.887Z,12.98
2022-09-07T10:30:14.853Z,12.90
2022-09-07T10:32:59.888Z,13.00
2022-09-07T10:35:32.062Z,13.01
2022-09-07T10:38:16.582Z,13.02
2022-09-07T10:40:49.002Z,12.89
2022-09-07T10:43:30.660Z,12.86
2022-09-07T10:49:27.684Z,12.96
2022-09-07T10:52:10.760Z,12.90
2022-09-07T10:54:50.205Z,13.17
2022-09-07T10:57:44.513Z,13.11
2022-09-07T11:00:18.299Z,13.07
2022-09-07T11:03:31.072Z,13.21
2022-09-07T11:06:12.573Z,13.44
2022-09-07T11:09:16.527Z,13.46
2022-09-07T11:12:02.066Z,13.49
2022-09-07T11:14:36.478Z,13.63
2022-09-07T11:17:12.920Z,13.50
2022-09-07T11:19:48.339Z,13.42
2022-09-07T11:22:24.416Z,13.43
2022-09-07T11:27:50.319Z,13.54
2022-09-07T11:30:22.181Z,13.57
2022-09-07T11:33:00.241Z,13.65
2022-09-07T11:35:40.343Z,13.65
2022-09-07T11:38:23.082Z,13.65
2022-09-07T11:41:03.601Z,13.65
2022-09-07T11:43:34.667Z,13.63
2022-09-07T11:46:07.113Z,13.68
2022-09-07T11:48:41.822Z,13.56
2022-09-07T11:51:20.881Z,13.72
2022-09-07T11:53:53.644Z,13.67
2022-09-07T11:56:28.484Z,13.61
2022-09-07T11:59:24.691Z,13.24
2022-09-07T12:02:42.039Z,13.03
2022-09-07T12:05:25.785Z,12.74
2022-09-07T12:08:23.751Z,12.76
2022-09-07T12:11:08.167Z,12.02
2022-09-07T12:13:49.770Z,12.05
2022-09-07T12:16:25.320Z,12.16
2022-09-07T12:19:10.441Z,12.19
2022-09-07T12:21:43.785Z,12.35
2022-09-07T12:24:39.440Z,12.63
2022-09-07T12:27:12.287Z,12.82
2022-09-07T12:29:45.258Z,12.73
2022-09-07T12:35:06.321Z,12.64
2022-09-07T12:37:43.781Z,12.65
2022-09-07T12:40:49.937Z,13.03
2022-09-07T12:43:46.420Z,12.93
2022-09-07T12:46:47.853Z,12.86
2022-09-07T12:49:44.080Z,13.17
2022-09-07T12:52:48.737Z,13.16
2022-09-07T12:59:02.530Z,12.99
2022-09-07T13:01:44.432Z,12.96
2022-09-07T13:04:34.592Z,12.87
2022-09-07T13:07:35.307Z,12.55
2022-09-07T13:10:07.038Z,12.36
2022-09-07T13:12:57.025Z,12.25
2022-09-07T13:15:46.351Z,12.09
2022-09-07T13:18:46.610Z,12.02
2022-09-07T13:21:37.700Z,11.93
2022-09-07T13:27:34.662Z,11.54
2022-09-07T13:30:07.246Z,11.60
2022-09-07T13:35:27.525Z,11.60
2022-09-07T13:37:58.064Z,11.60
2022-09-07T13:40:29.001Z,11.36
2022-09-07T13:42:58.472Z,11.28
2022-09-07T13:45:46.005Z,11.36
2022-09-07T13:48:22.847Z,11.25
2022-09-07T13:51:00.740Z,11.15
2022-09-07T13:53:44.117Z,11.13
2022-09-07T13:56:32.237Z,11.02
2022-09-07T13:59:01.024Z,10.96
2022-09-07T14:01:30.759Z,11.03
2022-09-07T14:04:07.630Z,11.03
2022-09-07T14:06:38.059Z,11.11
2022-09-07T14:09:15.413Z,10.93
2022-09-07T14:11:46.042Z,11.00
2022-09-07T14:14:17.732Z,11.00
2022-09-07T14:16:49.137Z,10.92
2022-09-07T14:19:25.363Z,11.03
2022-09-07T14:22:03.380Z,11.06
2022-09-07T14:24:35.089Z,11.09
2022-09-07T14:27:04.266Z,11.31
2022-09-07T14:29:34.522Z,11.18
2022-09-07T14:32:05.641Z,11.18
2022-09-07T14:34:38.422Z,11.08
2022-09-07T14:37:10.293Z,11.19
2022-09-07T14:39:42.239Z,11.18
2022-09-07T14:42:13.646Z,11.21
2022-09-07T14:44:45.143Z,11.17
2022-09-07T14:47:29.211Z,11.24
2022-09-07T14:50:06.179Z,11.36
2022-09-07T14:52:43.063Z,11.50
2022-09-07T14:55:30.164Z,11.59
2022-09-07T14:58:24.309Z,11.84
2022-09-07T15:03:57.953Z,11.72
2022-09-07T15:09:31.926Z,11.83
2022-09-07T15:12:06.226Z,11.85
2022-09-07T15:14:36.254Z,11.95
2022-09-07T15:19:53.960Z,11.66
2022-09-07T15:22:24.179Z,11.80
2022-09-07T15:24:52.960Z,11.78
2022-09-07T15:27:22.917Z,11.93
2022-09-07T15:29:51.589Z,11.84
2022-09-07T15:32:20.590Z,11.89
2022-09-07T15:34:49.320Z,11.80
2022-09-07T15:40:17.247Z,11.71
2022-09-07T15:43:06.606Z,11.74
2022-09-07T15:45:34.712Z,11.53
2022-09-07T15:48:03.761Z,11.54
2022-09-07T15:50:33.889Z,11.40
2022-09-07T15:53:03.166Z,11.27
2022-09-07T15:55:33.560Z,11.18
2022-09-07T15:58:11.364Z,11.11
2022-09-07T16:00:41.652Z,10.98
2022-09-07T16:03:12.166Z,10.66
2022-09-07T16:05:44.342Z,10.72
2022-09-07T16:08:32.739Z,10.75
2022-09-07T16:11:18.016Z,10.42
2022-09-07T16:13:48.148Z,10.28
2022-09-07T16:16:17.275Z,9.96
2022-09-07T16:18:47.205Z,10.00
2022-09-07T16:21:16.908Z,9.66
2022-09-07T16:23:49.039Z,9.94
2022-09-07T16:26:21.118Z,10.11
2022-09-07T16:28:51.685Z,9.83
2022-09-07T16:31:22.742Z,9.62
2022-09-07T16:33:52.008Z,9.94
2022-09-07T16:36:23.778Z,9.68
2022-09-07T16:38:57.039Z,9.54
2022-09-07T16:41:29.481Z,9.94
2022-09-07T16:43:59.087Z,9.65
2022-09-07T16:46:30.865Z,9.64
2022-09-07T16:49:00.422Z,9.31
2022-09-07T16:51:29.403Z,9.24
2022-09-07T16:53:59.205Z,9.04
2022-09-07T16:56:30.821Z,9.01
2022-09-07T16:59:02.562Z,8.96
2022-09-07T17:01:32.670Z,8.94
2022-09-07T17:04:03.522Z,8.92
2022-09-07T17:06:36.020Z,8.94
2022-09-07T17:09:04.740Z,8.83
2022-09-07T17:11:36.577Z,8.98
2022-09-07T17:14:06.826Z,9.04
2022-09-07T17:16:37.512Z,9.03
2022-09-07T17:21:57.726Z,9.11
2022-09-07T17:24:26.430Z,8.91
2022-09-07T17:26:56.720Z,8.87
2022-09-07T17:29:30.614Z,8.97
2022-09-07T17:34:48.182Z,9.13
2022-09-07T17:37:17.694Z,9.30
2022-09-07T17:39:46.336Z,9.39
2022-09-07T17:42:17.042Z,9.54
2022-09-07T17:44:45.728Z,9.14
2022-09-07T17:47:14.387Z,9.23
2022-09-07T17:49:43.161Z,9.23
2022-09-07T17:52:11.722Z,9.37
2022-09-07T17:54:40.632Z,9.51
2022-09-07T17:57:09.234Z,9.56
2022-09-07T18:02:27.897Z,9.66
2022-09-07T18:04:56.578Z,9.65
2022-09-07T18:07:26.716Z,9.70
2022-09-07T18:09:55.714Z,9.71
2022-09-07T18:12:24.504Z,9.59
2022-09-07T18:14:54.490Z,9.45
2022-09-07T18:17:23.177Z,9.56
2022-09-07T18:19:51.740Z,9.42
2022-09-07T18:22:20.338Z,9.04
2022-09-07T18:24:48.833Z,8.78
2022-09-07T18:27:17.674Z,8.73
2022-09-07T18:29:46.722Z,8.91
2022-09-07T18:32:17.689Z,9.09
2022-09-07T18:34:50.378Z,9.25
2022-09-07T18:37:19.744Z,9.17
2022-09-07T18:39:48.875Z,9.06
2022-09-07T18:42:17.626Z,8.82
2022-09-07T18:47:36.481Z,8.90
2022-09-07T18:50:05.622Z,8.99
2022-09-07T18:55:24.383Z,8.91
2022-09-07T18:57:53.381Z,8.95
2022-09-07T19:00:22.260Z,8.38
2022-09-07T19:02:52.812Z,8.07
2022-09-07T19:08:10.561Z,8.01
2022-09-07T19:10:39.722Z,8.00
2022-09-07T19:13:08.460Z,8.00
2022-09-07T19:15:38.023Z,7.99
2022-09-07T19:18:09.868Z,8.06
2022-09-07T19:20:39.140Z,8.11
2022-09-07T19:23:08.200Z,8.06
2022-09-07T19:25:41.823Z,8.25
2022-09-07T19:28:10.520Z,8.45
2022-09-07T19:30:39.042Z,8.39
2022-09-07T19:33:12.429Z,8.44
2022-09-07T19:35:41.083Z,8.28
2022-09-07T19:38:09.739Z,8.19
2022-09-07T19:40:38.762Z,8.09
2022-09-07T19:43:09.140Z,7.95
2022-09-07T19:45:39.882Z,7.95
2022-09-07T19:48:10.501Z,7.89
2022-09-07T19:50:39.180Z,7.91
2022-09-07T19:53:08.427Z,7.89
2022-09-07T19:55:37.207Z,7.84
2022-09-07T19:58:05.905Z,7.89
2022-09-07T20:00:34.815Z,7.71
2022-09-07T20:03:03.566Z,7.73
2022-09-07T20:05:33.664Z,7.73
2022-09-07T20:08:03.544Z,7.61
2022-09-07T20:10:32.522Z,7.57
2022-09-07T20:13:01.641Z,7.65
2022-09-07T20:15:30.523Z,7.57
2022-09-07T20:17:59.446Z,7.64
2022-09-07T20:20:28.121Z,7.64
2022-09-07T20:22:58.305Z,7.63
2022-09-07T20:25:26.901Z,7.65
2022-09-07T20:27:55.584Z,7.49
2022-09-07T20:30:25.486Z,7.44
2022-09-07T20:32:54.266Z,7.56
2022-09-07T20:35:22.967Z,7.37
2022-09-07T20:37:51.753Z,7.45
2022-09-07T20:40:21.871Z,7.25
2022-09-07T20:42:50.627Z,7.35
2022-09-07T20:45:19.243Z,7.28
2022-09-07T20:47:47.965Z,7.06
2022-09-07T20:50:16.778Z,6.91
2022-09-07T20:52:45.385Z,6.91
2022-09-07T20:55:13.970Z,6.89
2022-09-07T20:57:44.965Z,6.82
2022-09-07T21:00:14.045Z,6.80
2022-09-07T21:02:42.485Z,6.72
2022-09-07T21:05:11.664Z,6.71
2022-09-07T21:07:40.641Z,6.68
2022-09-07T21:10:10.704Z,6.63
2022-09-07T21:12:39.361Z,6.63
2022-09-07T21:15:10.701Z,6.59
2022-09-07T21:17:39.548Z,6.49
2022-09-07T21:20:08.486Z,6.45
2022-09-07T21:22:37.526Z,6.34
2022-09-07T21:25:06.748Z,6.32
2022-09-07T21:27:38.720Z,6.27
2022-09-07T21:30:10.265Z,6.11
2022-09-07T21:32:40.583Z,6.14
2022-09-07T21:35:11.017Z,5.98
2022-09-07T21:37:40.324Z,5.95
2022-09-07T21:40:10.068Z,5.83
2022-09-07T21:42:39.104Z,5.75
2022-09-07T21:45:10.705Z,5.72
2022-09-07T21:47:39.905Z,5.58
2022-09-07T21:50:09.243Z,5.52
2022-09-07T21:52:38.811Z,5.57
2022-09-07T21:55:08.982Z,5.55
2022-09-07T21:57:37.625Z,5.36
2022-09-07T22:00:10.005Z,5.38
2022-09-07T22:02:38.886Z,5.49
2022-09-07T22:05:07.848Z,5.49
2022-09-07T22:07:36.498Z,5.47
2022-09-07T22:10:05.580Z,5.33
2022-09-07T22:12:34.079Z,5.27
2022-09-07T22:15:02.659Z,5.19
2022-09-07T22:17:32.607Z,5.09
2022-09-07T22:20:01.129Z,5.01
2022-09-07T22:22:29.612Z,4.92
2022-09-07T22:24:58.147Z,4.92
2022-09-07T22:27:26.727Z,5.00
2022-09-07T22:29:55.447Z,5.13
2022-09-07T22:32:23.956Z,5.14
2022-09-07T22:34:53.878Z,5.15
2022-09-07T22:37:22.498Z,5.27
2022-09-07T22:39:51.623Z,5.11
2022-09-07T22:42:20.361Z,5.09
2022-09-07T22:44:48.950Z,5.04
2022-09-07T22:47:17.537Z,5.24
2022-09-07T22:49:46.197Z,5.31
2022-09-07T22:52:16.223Z,5.08
2022-09-07T22:54:44.763Z,4.80
2022-09-07T22:57:13.223Z,5.11
2022-09-07T22:59:41.888Z,5.05
2022-09-07T23:02:10.444Z,5.08
2022-09-07T23:04:39.311Z,4.89
2022-09-07T23:07:08.015Z,4.54
2022-09-07T23:09:38.003Z,4.43
2022-09-07T23:12:06.850Z,4.43
2022-09-07T23:14:35.593Z,4.24
2022-09-07T23:17:04.068Z,4.16
2022-09-07T23:19:32.668Z,4.10
2022-09-07T23:22:01.126Z,4.02
2022-09-07T23:24:29.763Z,3.92
2022-09-07T23:26:59.676Z,3.94
2022-09-07T23:29:28.320Z,3.94
2022-09-07T23:31:56.851Z,3.92
2022-09-07T23:34:25.380Z,3.92
2022-09-07T23:36:54.203Z,3.98
2022-09-07T23:39:22.891Z,3.86
2022-09-07T23:41:51.573Z,3.89
2022-09-07T23:44:21.632Z,3.77
2022-09-07T23:46:50.156Z,3.67
2022-09-07T23:49:18.825Z,3.52
2022-09-07T23:51:47.325Z,3.64
2022-09-07T23:54:16.039Z,3.72
2022-09-07T23:56:44.511Z,3.74
2022-09-07T23:59:13.276Z,3.58
